createdAt,value
2018-05-12T00:00:16.391Z,71.90
2018-05-12T00:02:17.812Z,71.90
2018-05-12T00:04:18.754Z,71.90
2018-05-12T00:06:19.739Z,72.00
2018-05-12T00:08:20.741Z,71.90
2018-05-12T00:10:23.114Z,72.20
2018-05-12T00:12:24.335Z,72.20
2018-05-12T00:14:25.581Z,72.70
2018-05-12T00:16:26.973Z,72.20
2018-05-12T00:18:28.850Z,72.20
2018-05-12T00:20:29.967Z,71.60
2018-05-12T00:22:30.961Z,71.80
2018-05-12T00:24:32.322Z,71.90
2018-05-12T00:26:33.322Z,72.00
2018-05-12T00:28:34.324Z,73.10
2018-05-12T00:30:35.330Z,73.20
2018-05-12T00:32:37.443Z,73.00
2018-05-12T00:34:39.552Z,72.40
2018-05-12T00:36:41.615Z,72.80
2018-05-12T00:38:43.295Z,72.80
2018-05-12T00:40:44.541Z,72.70
2018-05-12T00:42:45.636Z,72.50
2018-05-12T00:44:46.641Z,72.60
2018-05-12T00:46:47.645Z,72.50
2018-05-12T00:48:48.678Z,72.80
2018-05-12T00:50:49.945Z,72.00
2018-05-12T00:52:51.956Z,71.90
2018-05-12T00:54:53.546Z,72.20
2018-05-12T00:56:54.657Z,72.20
2018-05-12T00:58:55.727Z,72.40
2018-05-12T01:00:56.731Z,72.30
2018-05-12T01:02:57.731Z,72.30
2018-05-12T01:04:59.072Z,72.30
2018-05-12T01:07:00.079Z,72.30
2018-05-12T01:09:01.081Z,72.30
2018-05-12T01:11:02.075Z,72.20
2018-05-12T01:13:03.457Z,72.90
2018-05-12T01:15:04.419Z,72.90
2018-05-12T01:17:05.402Z,73.40
2018-05-12T01:19:06.533Z,73.00
2018-05-12T01:21:07.521Z,73.10
2018-05-12T01:23:08.495Z,72.80
2018-05-12T01:25:09.882Z,73.00
2018-05-12T01:27:10.858Z,73.00
2018-05-12T01:29:11.830Z,72.70
2018-05-12T01:31:12.830Z,73.30
2018-05-12T01:33:13.818Z,73.40
2018-05-12T01:35:14.978Z,74.20
2018-05-12T01:37:16.130Z,74.50
2018-05-12T01:39:17.130Z,74.60
2018-05-12T01:41:18.105Z,74.60
2018-05-12T01:43:19.118Z,74.20
2018-05-12T01:45:20.115Z,75.20
2018-05-12T01:47:21.087Z,75.90
2018-05-12T01:49:22.099Z,76.10
2018-05-12T01:51:23.322Z,76.30
2018-05-12T01:53:24.289Z,76.40
2018-05-12T01:55:25.279Z,76.10
2018-05-12T01:57:26.923Z,76.10
2018-05-12T01:59:28.259Z,76.10
2018-05-12T02:01:29.608Z,76.10
2018-05-12T02:03:30.962Z,75.50
2018-05-12T02:05:32.322Z,76.20
2018-05-12T02:07:33.316Z,76.20
2018-05-12T02:09:34.299Z,76.80
2018-05-12T02:11:35.655Z,76.90
2018-05-12T02:13:36.630Z,76.90
2018-05-12T02:15:37.958Z,77.20
2018-05-12T02:17:39.761Z,77.00
2018-05-12T02:19:40.730Z,77.00
2018-05-12T02:21:41.718Z,76.50
2018-05-12T02:23:43.052Z,77.00
2018-05-12T02:25:44.432Z,77.10
2018-05-12T02:27:45.409Z,77.10
2018-05-12T02:29:46.404Z,77.20
2018-05-12T02:31:47.389Z,77.70
2018-05-12T02:33:48.375Z,77.80
2018-05-12T02:35:56.351Z,77.40
2018-05-12T02:37:57.331Z,77.60
2018-05-12T02:39:58.315Z,78.60
2018-05-12T02:41:59.675Z,78.70
2018-05-12T02:44:00.647Z,78.60
2018-05-12T02:46:01.654Z,78.80
2018-05-12T02:48:02.646Z,78.90
2018-05-12T02:50:03.985Z,79.30
2018-05-12T02:52:05.327Z,79.30
2018-05-12T02:54:06.318Z,79.70
2018-05-12T02:56:07.306Z,79.60
2018-05-12T02:58:08.674Z,79.20
2018-05-12T03:00:09.681Z,79.20
2018-05-12T03:02:10.650Z,79.00
2018-05-12T03:04:11.923Z,78.80
2018-05-12T03:06:12.915Z,78.50
2018-05-12T03:08:13.922Z,78.20
2018-05-12T03:10:15.566Z,77.60
2018-05-12T03:12:16.535Z,77.60
2018-05-12T03:14:17.517Z,77.80
2018-05-12T03:16:18.551Z,78.80
2018-05-12T03:18:19.542Z,79.70
2018-05-12T03:20:20.534Z,79.70
2018-05-12T03:22:21.514Z,79.50
2018-05-12T03:24:22.510Z,80.10
2018-05-12T03:26:23.510Z,79.80
2018-05-12T03:28:24.483Z,79.70
2018-05-12T03:30:25.464Z,80.00
2018-05-12T03:32:26.459Z,80.20
2018-05-12T03:34:27.475Z,80.40
2018-05-12T03:36:28.434Z,80.40
2018-05-12T03:38:29.784Z,80.40
2018-05-12T03:40:31.190Z,80.40
2018-05-12T03:42:32.195Z,80.40
2018-05-12T03:44:33.182Z,80.60
2018-05-12T03:46:34.359Z,80.80
2018-05-12T03:48:35.354Z,80.70
2018-05-12T03:50:36.318Z,80.60
2018-05-12T03:52:37.832Z,80.90
2018-05-12T03:54:38.844Z,80.90
2018-05-12T03:56:39.926Z,81.10
2018-05-12T03:58:40.815Z,80.50
2018-05-12T04:00:41.906Z,81.00
2018-05-12T04:02:43.320Z,80.70
2018-05-12T06:16:12.339Z,82.10
2018-05-12T06:18:13.527Z,82.50
2018-05-12T06:20:14.449Z,82.40
2018-05-12T06:22:15.454Z,82.70
2018-05-12T06:24:16.459Z,82.50
2018-05-12T06:26:17.825Z,82.20
2018-05-12T06:28:18.814Z,82.20
2018-05-12T06:30:20.050Z,82.20
2018-05-12T06:32:20.998Z,82.20
2018-05-12T06:34:22.358Z,82.20
2018-05-12T06:36:23.719Z,82.00
2018-05-12T06:38:24.678Z,82.00
2018-05-12T06:40:25.667Z,81.80
2018-05-12T06:42:27.050Z,82.20
2018-05-12T06:44:28.022Z,82.30
2018-05-12T06:46:29.378Z,82.50
2018-05-12T06:48:31.015Z,82.50
2018-05-12T06:50:32.044Z,82.50
2018-05-12T06:52:33.147Z,82.80
2018-05-12T06:54:34.146Z,82.50
2018-05-12T06:56:35.486Z,82.40
2018-05-12T06:58:36.829Z,81.40
2018-05-12T07:00:38.238Z,82.00
2018-05-12T07:02:39.194Z,81.90
2018-05-12T07:04:40.231Z,81.60
2018-05-12T07:06:41.274Z,81.20
2018-05-12T07:08:42.618Z,81.10
2018-05-12T07:10:43.999Z,81.30
2018-05-12T07:12:45.016Z,81.30
2018-05-12T07:14:46.013Z,81.00
2018-05-12T07:16:47.125Z,81.10
2018-05-12T07:18:48.138Z,80.80
2018-05-12T07:20:49.227Z,80.90
2018-05-12T07:22:50.391Z,80.50
2018-05-12T07:24:51.770Z,80.60
2018-05-12T07:26:52.763Z,80.60
2018-05-12T07:28:54.114Z,80.30
2018-05-12T07:30:55.233Z,80.20
2018-05-12T07:32:56.230Z,80.50
2018-05-12T07:34:57.226Z,79.90
2018-05-12T07:36:58.211Z,78.90
2018-05-12T07:38:59.275Z,78.80
2018-05-12T07:41:00.560Z,77.60
2018-05-12T07:43:01.554Z,77.60
2018-05-12T07:45:02.957Z,77.10
2018-05-12T07:47:03.927Z,77.10
2018-05-12T07:49:04.974Z,76.80
2018-05-12T07:51:05.942Z,77.00
2018-05-12T07:53:07.008Z,76.60
2018-05-12T07:55:08.055Z,75.60
2018-05-12T07:57:09.038Z,75.40
2018-05-12T07:59:09.998Z,75.70
2018-05-12T08:01:10.985Z,75.40
2018-05-12T08:03:12.386Z,74.80
2018-05-12T08:05:13.362Z,74.80
2018-05-12T08:07:14.744Z,73.50
2018-05-12T08:09:15.742Z,73.50
2018-05-12T08:11:17.102Z,72.80
2018-05-12T08:13:18.113Z,72.70
2018-05-12T08:15:19.156Z,73.30
2018-05-12T08:17:20.508Z,73.10
2018-05-12T08:19:21.882Z,72.20
2018-05-12T08:21:23.588Z,72.20
2018-05-12T08:23:24.599Z,72.20
2018-05-12T08:25:25.569Z,71.50
2018-05-12T08:27:26.949Z,70.10
2018-05-12T08:29:27.951Z,70.10
2018-05-12T08:31:29.472Z,70.50
2018-05-12T08:33:30.975Z,70.20
2018-05-12T08:35:32.021Z,70.20
2018-05-12T08:37:33.627Z,69.60
2018-05-12T08:39:34.999Z,69.50
2018-05-12T08:41:36.017Z,69.50
2018-05-12T08:43:37.456Z,69.50
2018-05-12T08:45:38.837Z,69.10
2018-05-12T08:47:39.850Z,69.10
2018-05-12T08:49:41.242Z,68.10
2018-05-12T08:51:42.245Z,68.10
2018-05-12T08:53:43.232Z,67.80
2018-05-12T08:55:44.227Z,67.80
2018-05-12T08:57:45.257Z,67.20
2018-05-12T08:59:46.226Z,67.80
2018-05-12T09:01:47.238Z,67.20
2018-05-12T09:03:48.206Z,66.90
2018-05-12T09:05:49.249Z,67.20
2018-05-12T09:07:50.296Z,68.00
2018-05-12T09:09:51.330Z,66.10
2018-05-12T09:11:52.808Z,65.10
2018-05-12T09:13:53.799Z,65.10
2018-05-12T09:15:54.783Z,66.60
2018-05-12T09:17:55.793Z,65.40
2018-05-12T09:19:57.151Z,65.50
2018-05-12T09:21:58.110Z,65.40
2018-05-12T09:23:59.222Z,65.80
2018-05-12T09:26:00.236Z,64.90
2018-05-12T09:28:01.672Z,63.90
2018-05-12T09:30:02.727Z,63.90
2018-05-12T09:32:03.900Z,64.20
2018-05-12T09:34:05.578Z,65.80
2018-05-12T09:36:07.964Z,64.20
2018-05-12T09:38:08.999Z,64.00
2018-05-12T09:40:09.965Z,64.30
2018-05-12T09:42:11.019Z,62.90
2018-05-12T09:44:12.015Z,62.20
2018-05-12T09:46:13.454Z,65.00
2018-05-12T09:48:15.426Z,65.00
2018-05-12T09:50:16.863Z,61.90
2018-05-12T09:52:18.281Z,59.30
2018-05-12T09:54:19.256Z,59.30
2018-05-12T09:56:21.624Z,58.60
2018-05-12T09:58:24.107Z,58.60
2018-05-12T10:00:26.965Z,59.00
2018-05-12T10:02:28.434Z,58.00
2018-05-12T10:04:29.723Z,58.00
2018-05-12T10:06:30.740Z,58.70
2018-05-12T10:08:31.753Z,58.20
2018-05-12T10:10:32.794Z,59.70
2018-05-12T10:12:33.886Z,59.00
2018-05-12T10:14:35.426Z,58.80
2018-05-12T10:16:36.575Z,58.80
2018-05-12T10:18:37.950Z,57.90
2018-05-12T10:20:38.924Z,57.90
2018-05-12T10:22:39.959Z,58.10
2018-05-12T10:24:47.799Z,57.70
2018-05-12T10:26:49.519Z,57.40
2018-05-12T10:28:50.578Z,57.40
2018-05-12T10:30:52.099Z,56.70
2018-05-12T10:32:53.588Z,57.40
2018-05-12T10:34:55.454Z,57.50
2018-05-12T10:36:57.464Z,57.90
2018-05-12T10:38:58.537Z,58.20
2018-05-12T10:41:00.251Z,59.10
2018-05-12T10:43:01.307Z,59.10
2018-05-12T10:45:02.742Z,57.90
2018-05-12T10:47:04.270Z,56.20
2018-05-12T10:49:05.414Z,56.30
2018-05-12T10:51:06.407Z,56.80
2018-05-12T10:53:07.395Z,57.20
2018-05-12T10:55:08.419Z,58.30
2018-05-12T10:57:09.475Z,58.00
2018-05-12T10:59:10.473Z,57.20
2018-05-12T11:01:11.476Z,56.20
2018-05-12T11:03:12.608Z,58.00
2018-05-12T11:05:13.955Z,58.80
2018-05-12T11:07:14.977Z,58.70
2018-05-12T11:09:16.351Z,57.20
2018-05-12T11:11:17.342Z,57.20
2018-05-12T11:13:18.658Z,56.60
2018-05-12T11:15:19.632Z,56.70
2018-05-12T11:17:21.011Z,55.20
2018-05-12T11:19:22.182Z,55.20
2018-05-12T11:21:23.186Z,57.00
2018-05-12T11:23:24.225Z,56.70
2018-05-12T11:25:25.214Z,56.70
2018-05-12T11:27:26.312Z,56.40
2018-05-12T11:29:27.319Z,57.20
2018-05-12T11:31:28.306Z,56.50
2018-05-12T11:33:29.322Z,56.80
2018-05-12T11:35:30.328Z,56.80
2018-05-12T11:37:32.159Z,56.20
2018-05-12T11:39:34.050Z,56.80
2018-05-12T11:41:35.326Z,56.80
2018-05-12T11:43:36.464Z,56.60
2018-05-12T11:45:37.545Z,56.30
2018-05-12T11:47:38.617Z,56.20
2018-05-12T11:49:39.979Z,55.40
2018-05-12T11:51:41.052Z,55.70
2018-05-12T11:53:42.505Z,54.50
2018-05-12T11:55:44.482Z,54.50
2018-05-12T11:57:45.788Z,54.10
2018-05-12T11:59:47.719Z,53.50
2018-05-12T12:01:48.956Z,53.50
2018-05-12T12:03:50.050Z,53.30
2018-05-12T12:05:51.127Z,53.80
2018-05-12T12:07:52.578Z,54.60
2018-05-12T12:09:53.604Z,54.60
2018-05-12T12:11:54.662Z,54.20
2018-05-12T12:13:55.713Z,54.70
2018-05-12T12:15:56.773Z,54.30
2018-05-12T12:17:57.900Z,54.10
2018-05-12T12:19:59.358Z,53.40
2018-05-12T12:22:00.560Z,52.80
2018-05-12T12:24:01.731Z,50.40
2018-05-12T12:26:02.807Z,51.00
2018-05-12T12:28:04.034Z,51.70
2018-05-12T12:30:05.120Z,50.00
2018-05-12T12:32:06.179Z,51.00
2018-05-12T12:34:07.701Z,52.20
2018-05-12T12:36:11.207Z,52.20
2018-05-12T12:38:12.448Z,53.60
2018-05-12T12:40:14.559Z,52.80
2018-05-12T12:42:15.909Z,52.80
2018-05-12T12:44:16.923Z,52.70
2018-05-12T12:46:18.117Z,50.40
2018-05-12T12:48:19.147Z,48.60
2018-05-12T12:50:20.227Z,46.70
2018-05-12T12:52:21.935Z,46.40
2018-05-12T12:54:23.396Z,44.50
2018-05-12T12:56:25.256Z,47.60
2018-05-12T12:58:26.934Z,44.00
2018-05-12T13:00:27.975Z,44.00
2018-05-12T13:02:29.002Z,43.60
2018-05-12T13:04:30.117Z,43.60
2018-05-12T13:06:31.566Z,41.90
2018-05-12T13:08:33.635Z,41.90
2018-05-12T13:10:34.902Z,43.10
2018-05-12T13:12:35.915Z,40.20
2018-05-12T13:14:36.926Z,38.10
2018-05-12T13:16:37.925Z,38.50
2018-05-12T13:18:38.955Z,39.10
2018-05-12T13:20:39.991Z,40.00
2018-05-12T13:22:40.999Z,40.30
2018-05-12T13:24:42.016Z,39.70
2018-05-12T13:26:43.402Z,39.60
2018-05-12T13:28:44.472Z,39.60
2018-05-12T13:30:45.469Z,37.10
2018-05-12T13:32:46.838Z,37.50
2018-05-12T13:34:47.862Z,37.50
2018-05-12T13:36:49.470Z,37.90
2018-05-12T13:38:50.807Z,41.10
2018-05-12T13:40:52.345Z,42.70
2018-05-12T13:42:53.691Z,41.80
2018-05-12T13:44:55.064Z,41.30
2018-05-12T13:46:56.059Z,41.30
2018-05-12T13:48:57.104Z,38.40
2018-05-12T13:50:59.392Z,38.80
2018-05-12T13:53:00.527Z,38.80
2018-05-12T13:55:01.561Z,36.80
2018-05-12T13:57:02.948Z,36.60
2018-05-12T13:59:04.064Z,36.60
2018-05-12T14:01:05.047Z,35.30
2018-05-12T14:03:06.030Z,33.90
2018-05-12T14:05:07.180Z,34.00
2018-05-12T14:07:08.162Z,35.40
2018-05-12T14:09:09.178Z,36.10
2018-05-12T14:11:10.211Z,37.00
2018-05-12T14:13:11.197Z,35.00
2018-05-12T14:15:12.277Z,36.60
2018-05-12T14:17:13.334Z,39.00
2018-05-12T14:19:14.343Z,35.70
2018-05-12T14:21:15.324Z,36.90
2018-05-12T14:23:16.897Z,41.00
2018-05-12T14:25:17.883Z,41.00
2018-05-12T14:27:18.891Z,42.00
2018-05-12T14:29:20.046Z,39.80
2018-05-12T14:31:21.010Z,38.10
2018-05-12T14:33:22.401Z,41.40
2018-05-12T14:35:23.417Z,41.40
2018-05-12T14:37:28.029Z,44.00
2018-05-12T14:39:29.018Z,45.60
2018-05-12T14:41:30.056Z,45.90
2018-05-12T14:43:31.035Z,44.30
2018-05-12T14:45:32.509Z,41.40
2018-05-12T14:47:33.494Z,41.40
2018-05-12T14:49:34.470Z,39.80
2018-05-12T14:51:35.462Z,39.50
2018-05-12T14:53:36.463Z,38.00
2018-05-12T14:55:37.465Z,37.70
2018-05-12T14:57:38.507Z,41.20
2018-05-12T14:59:39.502Z,43.60
2018-05-12T15:01:40.518Z,44.80
2018-05-12T15:03:41.538Z,45.50
2018-05-12T15:05:42.534Z,45.20
2018-05-12T15:07:43.946Z,44.30
2018-05-12T15:09:44.968Z,44.30
2018-05-12T15:11:45.934Z,44.50
2018-05-12T15:13:47.268Z,46.80
2018-05-12T15:15:48.246Z,46.80
2018-05-12T15:17:49.252Z,46.70
2018-05-12T15:19:50.620Z,46.30
2018-05-12T15:21:51.922Z,46.30
2018-05-12T15:23:52.908Z,46.80
2018-05-12T15:25:53.897Z,48.90
2018-05-12T15:27:55.282Z,47.90
2018-05-12T15:29:56.287Z,47.90
2018-05-12T15:31:57.685Z,48.80
2018-05-12T15:33:58.697Z,48.80
2018-05-12T15:35:59.678Z,48.90
2018-05-12T15:38:00.677Z,49.30
2018-05-12T15:40:01.677Z,49.90
2018-05-12T15:42:03.070Z,50.40
2018-05-12T15:44:04.054Z,50.50
2018-05-12T15:46:05.077Z,51.10
2018-05-12T15:48:06.120Z,51.50
2018-05-12T15:50:07.342Z,51.40
2018-05-12T15:52:08.348Z,51.60
2018-05-12T15:54:09.339Z,52.50
2018-05-12T15:56:10.842Z,57.00
2018-05-12T15:58:11.810Z,57.00
2018-05-12T16:00:13.191Z,57.50
2018-05-12T16:02:14.925Z,57.50
2018-05-12T16:04:15.911Z,57.30
2018-05-12T16:06:16.890Z,57.50
2018-05-12T16:08:18.251Z,57.40
2018-05-12T16:10:19.246Z,57.40
2018-05-12T16:12:20.255Z,57.50
2018-05-12T16:14:21.218Z,57.60
2018-05-12T16:16:22.221Z,58.00
2018-05-12T16:18:23.273Z,58.80
2018-05-12T16:20:24.420Z,59.50
2018-05-12T16:22:26.226Z,60.70
2018-05-12T16:24:27.219Z,61.10
2018-05-12T16:26:28.202Z,61.50
2018-05-12T16:28:29.195Z,62.10
2018-05-12T16:30:30.568Z,63.10
2018-05-12T16:32:31.590Z,63.10
2018-05-12T16:34:32.573Z,62.70
2018-05-12T16:36:33.561Z,63.60
2018-05-12T16:38:34.579Z,63.60
2018-05-12T16:40:35.936Z,64.10
2018-05-12T16:42:36.946Z,64.10
2018-05-12T16:44:38.036Z,63.90
2018-05-12T16:46:38.954Z,63.80
2018-05-12T16:48:39.961Z,63.80
2018-05-12T16:50:41.339Z,64.60
2018-05-12T16:52:42.705Z,64.70
2018-05-12T16:54:43.671Z,64.70
2018-05-12T16:58:52.347Z,65.30
2018-05-12T17:00:53.326Z,65.60
2018-05-12T17:02:54.327Z,65.60
2018-05-12T17:04:55.345Z,65.50
2018-05-12T17:06:56.314Z,65.30
2018-05-12T17:08:57.327Z,65.30
2018-05-12T17:10:58.346Z,65.20
2018-05-12T17:12:59.346Z,65.50
2018-05-12T17:15:00.378Z,65.80
2018-05-12T17:17:01.427Z,65.60
2018-05-12T17:19:02.454Z,66.50
2018-05-12T17:21:03.451Z,66.10
2018-05-12T17:23:04.432Z,65.90
2018-05-12T17:25:05.429Z,66.10
2018-05-12T17:27:06.411Z,66.80
2018-05-12T17:29:07.914Z,67.00
2018-05-12T17:31:08.907Z,67.00
2018-05-12T18:05:55.759Z,67.90
2018-05-12T18:07:57.176Z,67.90
2018-05-12T18:09:58.163Z,67.70
2018-05-12T18:11:59.622Z,68.70
2018-05-12T18:14:01.049Z,68.70
2018-05-12T18:16:02.091Z,68.70
2018-05-12T18:18:03.666Z,69.10
2018-05-12T18:20:04.685Z,69.10
2018-05-12T18:22:06.161Z,69.50
2018-05-12T18:24:07.219Z,69.50
2018-05-12T18:26:08.247Z,69.00
2018-05-12T18:28:09.294Z,69.60
2018-05-12T18:30:10.447Z,69.40
2018-05-12T18:32:18.629Z,69.40
2018-05-12T18:34:19.536Z,69.70
2018-05-12T18:36:20.541Z,70.20
2018-05-12T18:38:21.922Z,70.20
2018-05-12T18:40:23.650Z,70.20
2018-05-12T18:42:24.996Z,70.20
2018-05-12T18:44:26.402Z,70.40
2018-05-12T18:46:27.377Z,70.40
2018-05-12T18:48:28.751Z,71.40
2018-05-12T18:50:32.048Z,71.40
2018-05-12T18:52:33.799Z,71.50
2018-05-12T18:54:34.840Z,71.30
2018-05-12T18:56:35.918Z,71.20
2018-05-12T18:58:36.856Z,71.30
2018-05-12T19:00:38.194Z,71.50
2018-05-12T19:02:39.583Z,71.20
2018-05-12T19:04:57.689Z,71.20
2018-05-12T19:06:59.459Z,72.00
2018-05-12T19:09:01.645Z,72.00
2018-05-12T19:11:13.956Z,71.90
2018-05-12T19:13:23.138Z,72.00
2018-05-12T19:15:26.821Z,72.00
2018-05-12T19:20:13.171Z,72.30
2018-05-12T19:22:16.466Z,72.40
2018-05-12T19:24:26.902Z,72.50
2018-05-12T21:01:33.087Z,79.00
2018-05-12T22:06:22.550Z,79.90
2018-05-12T22:08:23.545Z,80.20
2018-05-12T22:10:24.551Z,80.40
2018-05-12T22:12:25.579Z,80.50
2018-05-12T22:14:26.995Z,80.90
2018-05-12T22:16:28.390Z,81.10
2018-05-12T22:18:29.450Z,81.10
2018-05-12T22:20:30.393Z,81.30
2018-05-12T22:22:31.755Z,81.20
2018-05-12T22:24:32.784Z,81.20
2018-05-12T22:26:34.161Z,80.90
2018-05-12T22:28:35.190Z,80.90
2018-05-12T22:30:36.283Z,81.10
2018-05-12T22:32:37.589Z,80.70
2018-05-12T22:34:38.583Z,80.80
2018-05-12T22:36:39.603Z,80.80
2018-05-12T22:38:40.967Z,80.80
2018-05-12T22:40:41.937Z,80.90
2018-05-12T22:42:42.940Z,81.30
2018-05-12T22:44:43.935Z,81.40
2018-05-12T22:46:45.111Z,81.30
2018-05-12T22:48:46.758Z,81.10
2018-05-12T22:50:48.130Z,81.80
2018-05-12T22:52:49.178Z,81.70
2018-05-12T22:54:50.247Z,81.50
2018-05-12T22:56:51.227Z,81.20
2018-05-12T22:58:52.318Z,81.10
2018-05-12T23:00:53.288Z,81.00
2018-05-12T23:02:54.282Z,80.70
2018-05-12T23:04:55.266Z,80.80
2018-05-12T23:06:56.267Z,80.90
2018-05-12T23:08:57.268Z,80.70
2018-05-12T23:10:58.295Z,81.00
2018-05-12T23:12:59.303Z,80.80
2018-05-12T23:15:00.282Z,81.00
2018-05-12T23:17:01.273Z,80.70
2018-05-12T23:19:02.283Z,81.00
2018-05-12T23:21:03.651Z,81.80
2018-05-12T23:23:04.646Z,81.80
2018-05-12T23:25:05.624Z,82.00
2018-05-12T23:27:06.599Z,81.90
2018-05-12T23:29:07.590Z,81.70
2018-05-12T23:31:08.602Z,82.10
2018-05-12T23:33:09.949Z,82.20
2018-05-12T23:35:11.539Z,82.10
2018-05-12T23:37:12.518Z,82.00
2018-05-12T23:39:13.482Z,82.40
2018-05-12T23:41:14.470Z,82.00
2018-05-12T23:43:15.461Z,82.30
2018-05-12T23:45:16.486Z,82.40
2018-05-12T23:47:17.796Z,82.50
2018-05-12T23:49:18.774Z,82.50
2018-05-12T23:51:19.782Z,82.80
2018-05-12T23:53:20.729Z,82.60
2018-05-12T23:55:22.085Z,82.60
2018-05-12T23:57:23.062Z,82.70
2018-05-12T23:59:24.030Z,82.80
